createdAt,value
2022-11-10T00:00:52.928Z,1009.61
2022-11-10T00:01:52.891Z,1009.58
2022-11-10T00:02:52.881Z,1009.57
2022-11-10T00:03:52.927Z,1009.55
2022-11-10T00:04:52.859Z,1009.56
2022-11-10T00:05:52.868Z,1009.58
2022-11-10T00:06:52.968Z,1009.61
2022-11-10T00:07:52.838Z,1009.63
2022-11-10T00:08:53.078Z,1009.65
2022-11-10T00:09:52.841Z,1009.68
2022-11-10T00:10:52.832Z,1009.71
2022-11-10T00:11:52.809Z,1009.77
2022-11-10T00:12:52.783Z,1009.79
2022-11-10T00:13:52.808Z,1009.80
2022-11-10T00:14:52.756Z,1009.83
2022-11-10T00:15:52.782Z,1009.85
2022-11-10T00:16:52.748Z,1009.88
2022-11-10T00:17:52.984Z,1009.90
2022-11-10T00:18:52.716Z,1009.93
2022-11-10T00:19:52.735Z,1009.95
2022-11-10T00:20:52.706Z,1009.97
2022-11-10T00:21:52.691Z,1009.99
2022-11-10T00:22:52.681Z,1010.01
2022-11-10T00:23:52.676Z,1010.03
2022-11-10T00:24:52.644Z,1010.05
2022-11-10T00:25:52.676Z,1010.06
2022-11-10T00:26:52.627Z,1010.06
2022-11-10T00:27:52.613Z,1010.07
2022-11-10T00:28:52.652Z,1010.05
2022-11-10T00:29:52.619Z,1010.06
2022-11-10T00:30:52.644Z,1010.10
2022-11-10T00:31:52.585Z,1010.13
2022-11-10T00:32:52.633Z,1010.15
2022-11-10T00:33:52.572Z,1010.17
2022-11-10T00:34:52.568Z,1010.20
2022-11-10T00:35:52.551Z,1010.24
2022-11-10T00:36:52.560Z,1010.26
2022-11-10T00:37:52.560Z,1010.29
2022-11-10T00:38:52.511Z,1010.30
2022-11-10T00:39:52.492Z,1010.31
2022-11-10T00:40:52.496Z,1010.32
2022-11-10T00:41:52.512Z,1010.33
2022-11-10T00:42:52.494Z,1010.34
2022-11-10T00:43:52.488Z,1010.37
2022-11-10T00:44:52.454Z,1010.38
2022-11-10T00:45:52.462Z,1010.39
2022-11-10T00:46:52.468Z,1010.40
2022-11-10T00:47:52.451Z,1010.42
2022-11-10T00:48:52.417Z,1010.43
2022-11-10T00:49:52.433Z,1010.45
2022-11-10T00:50:52.402Z,1010.47
2022-11-10T00:51:52.409Z,1010.48
2022-11-10T00:52:52.446Z,1010.49
2022-11-10T00:53:52.354Z,1010.48
2022-11-10T00:54:52.351Z,1010.49
2022-11-10T00:55:52.351Z,1010.49
2022-11-10T00:56:52.348Z,1010.50
2022-11-10T00:57:52.316Z,1010.53
2022-11-10T00:58:52.352Z,1010.55
2022-11-10T00:59:52.304Z,1010.57
2022-11-10T01:00:52.324Z,1010.58
2022-11-10T01:01:52.555Z,1010.59
2022-11-10T01:02:52.264Z,1010.63
2022-11-10T01:03:52.262Z,1010.66
2022-11-10T01:04:52.270Z,1010.69
2022-11-10T01:05:52.253Z,1010.72
2022-11-10T01:06:52.291Z,1010.75
2022-11-10T01:07:52.519Z,1010.79
2022-11-10T01:08:52.230Z,1010.80
2022-11-10T01:09:52.277Z,1010.83
2022-11-10T01:10:52.216Z,1010.84
2022-11-10T01:11:52.197Z,1010.87
2022-11-10T01:12:52.211Z,1010.89
2022-11-10T01:13:52.163Z,1010.92
2022-11-10T01:14:52.179Z,1010.92
2022-11-10T01:15:52.151Z,1010.93
2022-11-10T01:16:52.146Z,1010.94
2022-11-10T01:17:52.173Z,1010.95
2022-11-10T01:18:52.130Z,1010.95
2022-11-10T01:19:52.164Z,1010.95
2022-11-10T01:20:52.082Z,1010.96
2022-11-10T01:21:52.112Z,1010.98
2022-11-10T01:22:52.073Z,1011.01
2022-11-10T01:23:52.050Z,1011.03
2022-11-10T01:24:52.069Z,1011.06
2022-11-10T01:25:52.082Z,1011.07
2022-11-10T01:26:52.059Z,1011.09
2022-11-10T01:27:52.007Z,1011.08
2022-11-10T01:28:52.004Z,1011.10
2022-11-10T01:29:51.988Z,1011.10
2022-11-10T01:30:52.012Z,1011.12
2022-11-10T01:31:52.016Z,1011.12
2022-11-10T01:32:52.005Z,1011.11
2022-11-10T01:33:51.979Z,1011.12
2022-11-10T01:34:52.003Z,1011.13
2022-11-10T01:35:51.954Z,1011.13
2022-11-10T01:36:51.971Z,1011.12
2022-11-10T01:37:52.187Z,1011.16
2022-11-10T01:38:51.918Z,1011.13
2022-11-10T01:39:51.955Z,1011.13
2022-11-10T01:40:51.891Z,1011.13
2022-11-10T01:41:51.926Z,1011.13
2022-11-10T01:42:51.900Z,1011.14
2022-11-10T01:43:51.886Z,1011.14
2022-11-10T01:44:52.625Z,1011.16
2022-11-10T01:45:51.837Z,1011.17
2022-11-10T01:46:51.854Z,1011.15
2022-11-10T01:47:51.809Z,1011.17
2022-11-10T01:48:51.823Z,1011.17
2022-11-10T01:49:51.791Z,1011.17
2022-11-10T01:50:51.778Z,1011.17
2022-11-10T01:51:51.767Z,1011.17
2022-11-10T01:52:51.793Z,1011.19
2022-11-10T01:53:51.771Z,1011.20
2022-11-10T01:54:51.760Z,1011.21
2022-11-10T01:55:51.766Z,1011.21
2022-11-10T01:56:51.772Z,1011.23
2022-11-10T01:57:51.693Z,1011.23
2022-11-10T01:58:51.677Z,1011.22
2022-11-10T01:59:51.702Z,1011.23
2022-11-10T02:00:51.774Z,1011.24
2022-11-10T02:01:51.685Z,1011.26
2022-11-10T02:02:51.674Z,1011.26
2022-11-10T02:03:51.671Z,1011.28
2022-11-10T02:04:51.673Z,1011.28
2022-11-10T02:05:51.645Z,1011.29
2022-11-10T02:06:51.646Z,1011.29
2022-11-10T02:07:51.658Z,1011.29
2022-11-10T02:08:51.587Z,1011.32
2022-11-10T02:09:51.630Z,1011.34
2022-11-10T02:10:51.571Z,1011.35
2022-11-10T02:11:51.582Z,1011.38
2022-11-10T02:12:51.569Z,1011.39
2022-11-10T02:13:51.559Z,1011.41
2022-11-10T02:14:51.553Z,1011.41
2022-11-10T02:15:51.587Z,1011.42
2022-11-10T02:16:51.517Z,1011.42
2022-11-10T02:17:51.534Z,1011.43
2022-11-10T02:18:51.515Z,1011.43
2022-11-10T02:19:51.472Z,1011.45
2022-11-10T02:20:51.504Z,1011.44
2022-11-10T02:21:51.492Z,1011.44
2022-11-10T02:22:51.469Z,1011.41
2022-11-10T02:23:51.448Z,1011.42
2022-11-10T02:24:51.490Z,1011.41
2022-11-10T02:25:51.431Z,1011.40
2022-11-10T02:26:51.431Z,1011.41
2022-11-10T02:27:51.422Z,1011.43
2022-11-10T02:28:51.430Z,1011.43
2022-11-10T02:29:51.402Z,1011.44
2022-11-10T02:30:51.377Z,1011.43
2022-11-10T02:31:51.388Z,1011.43
2022-11-10T02:32:51.348Z,1011.43
2022-11-10T02:33:51.403Z,1011.44
2022-11-10T02:34:51.332Z,1011.44
2022-11-10T02:35:51.316Z,1011.42
2022-11-10T02:36:51.318Z,1011.41
2022-11-10T02:37:51.313Z,1011.40
2022-11-10T02:38:51.288Z,1011.39
2022-11-10T02:39:51.282Z,1011.39
2022-11-10T02:40:51.278Z,1011.38
2022-11-10T02:41:51.247Z,1011.37
2022-11-10T02:42:51.253Z,1011.36
2022-11-10T02:43:51.249Z,1011.34
2022-11-10T02:44:51.241Z,1011.33
2022-11-10T02:45:51.253Z,1011.32
2022-11-10T02:46:51.195Z,1011.30
2022-11-10T02:47:51.192Z,1011.30
2022-11-10T02:48:51.218Z,1011.30
2022-11-10T02:49:51.180Z,1011.33
2022-11-10T02:50:51.202Z,1011.35
2022-11-10T02:51:51.161Z,1011.39
2022-11-10T02:52:51.168Z,1011.42
2022-11-10T02:53:51.172Z,1011.44
2022-11-10T02:54:51.145Z,1011.44
2022-11-10T02:55:51.120Z,1011.47
2022-11-10T02:56:51.122Z,1011.49
2022-11-10T02:57:51.116Z,1011.49
2022-11-10T02:58:51.360Z,1011.49
2022-11-10T02:59:51.093Z,1011.51
2022-11-10T03:00:51.120Z,1011.53
2022-11-10T03:01:51.057Z,1011.53
2022-11-10T03:02:51.287Z,1011.55
2022-11-10T03:03:51.090Z,1011.57
2022-11-10T03:04:51.069Z,1011.60
2022-11-10T03:05:51.000Z,1011.63
2022-11-10T03:06:51.051Z,1011.67
2022-11-10T03:07:51.012Z,1011.69
2022-11-10T03:08:50.990Z,1011.70
2022-11-10T03:09:50.957Z,1011.73
2022-11-10T03:10:50.954Z,1011.77
2022-11-10T03:11:50.939Z,1011.80
2022-11-10T03:12:50.936Z,1011.81
2022-11-10T03:14:01.445Z,1011.80
2022-11-10T03:14:50.916Z,1011.79
2022-11-10T03:15:50.920Z,1011.81
2022-11-10T03:16:50.913Z,1011.84
2022-11-10T03:17:50.882Z,1011.90
2022-11-10T03:18:50.902Z,1011.95
2022-11-10T03:19:50.877Z,1011.98
2022-11-10T03:20:50.858Z,1011.98
2022-11-10T03:21:51.118Z,1011.97
2022-11-10T03:22:50.827Z,1011.97
2022-11-10T03:23:50.856Z,1011.97
2022-11-10T03:24:50.875Z,1012.01
2022-11-10T03:25:50.810Z,1012.06
2022-11-10T03:26:50.789Z,1012.09
2022-11-10T03:27:50.783Z,1012.10
2022-11-10T03:28:50.796Z,1012.14
2022-11-10T03:29:50.788Z,1012.12
2022-11-10T03:30:50.770Z,1012.12
2022-11-10T03:31:50.762Z,1012.16
2022-11-10T03:32:50.742Z,1012.16
2022-11-10T03:33:50.733Z,1012.15
2022-11-10T03:34:50.741Z,1012.15
2022-11-10T03:35:50.734Z,1012.14
2022-11-10T03:36:50.691Z,1012.12
2022-11-10T03:37:50.723Z,1012.10
2022-11-10T03:38:50.664Z,1012.08
2022-11-10T03:39:50.680Z,1012.08
2022-11-10T03:41:17.660Z,1012.12
2022-11-10T03:41:50.651Z,1012.18
2022-11-10T03:42:50.657Z,1012.24
2022-11-10T03:43:50.631Z,1012.31
2022-11-10T03:44:50.656Z,1012.34
2022-11-10T03:45:50.613Z,1012.35
2022-11-10T03:46:51.843Z,1012.36
2022-11-10T03:47:50.688Z,1012.34
2022-11-10T03:48:53.721Z,1012.33
2022-11-10T03:49:50.593Z,1012.29
2022-11-10T03:50:50.537Z,1012.31
2022-11-10T03:51:50.559Z,1012.32
2022-11-10T03:52:50.545Z,1012.35
2022-11-10T03:53:50.523Z,1012.37
2022-11-10T03:54:50.522Z,1012.38
2022-11-10T03:55:50.520Z,1012.39
2022-11-10T03:56:50.487Z,1012.42
2022-11-10T03:57:50.514Z,1012.43
2022-11-10T03:58:50.469Z,1012.47
2022-11-10T03:59:50.480Z,1012.47
2022-11-10T04:00:50.486Z,1012.49
2022-11-10T04:01:50.537Z,1012.50
2022-11-10T04:02:50.457Z,1012.52
2022-11-10T04:03:51.794Z,1012.54
2022-11-10T04:04:50.415Z,1012.54
2022-11-10T04:05:50.436Z,1012.54
2022-11-10T04:06:50.496Z,1012.54
2022-11-10T04:07:50.399Z,1012.54
2022-11-10T04:08:50.419Z,1012.53
2022-11-10T04:09:50.363Z,1012.52
2022-11-10T04:10:50.377Z,1012.51
2022-11-10T04:11:50.381Z,1012.51
2022-11-10T04:12:50.327Z,1012.50
2022-11-10T04:13:50.344Z,1012.51
2022-11-10T04:14:50.303Z,1012.52
2022-11-10T04:15:50.322Z,1012.54
2022-11-10T04:16:50.332Z,1012.56
2022-11-10T04:17:50.270Z,1012.56
2022-11-10T04:18:50.264Z,1012.58
2022-11-10T04:19:50.271Z,1012.60
2022-11-10T04:20:50.249Z,1012.62
2022-11-10T04:21:50.254Z,1012.65
2022-11-10T04:22:50.257Z,1012.68
2022-11-10T04:23:50.226Z,1012.72
2022-11-10T04:24:50.233Z,1012.73
2022-11-10T04:25:50.196Z,1012.75
2022-11-10T04:26:50.233Z,1012.78
2022-11-10T04:27:50.212Z,1012.81
2022-11-10T04:28:50.205Z,1012.84
2022-11-10T04:29:50.180Z,1012.84
2022-11-10T04:30:50.157Z,1012.84
2022-11-10T04:31:50.141Z,1012.83
2022-11-10T04:32:50.148Z,1012.82
2022-11-10T04:33:50.129Z,1012.81
2022-11-10T04:34:50.140Z,1012.82
2022-11-10T04:35:50.096Z,1012.80
2022-11-10T04:36:50.604Z,1012.78
2022-11-10T04:37:50.075Z,1012.77
2022-11-10T04:38:49.999Z,1012.75
2022-11-10T04:39:50.107Z,1012.73
2022-11-10T04:40:50.051Z,1012.73
2022-11-10T04:41:50.028Z,1012.72
2022-11-10T04:42:50.054Z,1012.74
2022-11-10T04:43:50.020Z,1012.75
2022-11-10T04:44:50.033Z,1012.78
2022-11-10T04:45:50.024Z,1012.79
2022-11-10T04:46:50.026Z,1012.82
2022-11-10T04:47:49.967Z,1012.87
2022-11-10T04:48:49.909Z,1012.91
2022-11-10T04:49:49.959Z,1012.95
2022-11-10T04:50:49.986Z,1012.98
2022-11-10T04:51:50.016Z,1012.99
2022-11-10T04:52:49.933Z,1013.00
2022-11-10T04:53:49.917Z,1012.99
2022-11-10T04:54:49.929Z,1012.97
2022-11-10T04:55:49.910Z,1012.97
2022-11-10T04:56:49.906Z,1012.97
2022-11-10T04:57:49.882Z,1012.99
2022-11-10T04:58:49.875Z,1013.01
2022-11-10T04:59:49.877Z,1013.03
2022-11-10T05:00:49.950Z,1013.02
2022-11-10T05:01:49.832Z,1013.02
2022-11-10T05:02:49.842Z,1013.04
2022-11-10T05:03:49.816Z,1013.06
2022-11-10T05:04:49.814Z,1013.11
2022-11-10T05:05:49.843Z,1013.18
2022-11-10T05:06:49.860Z,1013.25
2022-11-10T05:07:49.796Z,1013.32
2022-11-10T05:08:49.814Z,1013.36
2022-11-10T05:09:49.770Z,1013.37
2022-11-10T05:10:49.745Z,1013.35
2022-11-10T05:11:49.776Z,1013.33
2022-11-10T05:12:49.727Z,1013.33
2022-11-10T05:13:49.774Z,1013.35
2022-11-10T05:14:49.658Z,1013.38
2022-11-10T05:15:49.693Z,1013.40
2022-11-10T05:16:49.729Z,1013.44
2022-11-10T05:17:49.676Z,1013.48
2022-11-10T05:18:49.661Z,1013.52
2022-11-10T05:19:49.681Z,1013.55
2022-11-10T05:20:49.667Z,1013.59
2022-11-10T05:21:49.669Z,1013.65
2022-11-10T05:22:49.627Z,1013.71
2022-11-10T05:23:49.927Z,1013.76
2022-11-10T05:24:49.631Z,1013.77
2022-11-10T05:25:49.598Z,1013.75
2022-11-10T05:26:49.603Z,1013.72
2022-11-10T05:27:49.591Z,1013.72
2022-11-10T05:28:49.584Z,1013.74
2022-11-10T05:29:49.600Z,1013.76
2022-11-10T05:30:49.572Z,1013.79
2022-11-10T05:31:51.718Z,1013.80
2022-11-10T05:32:49.529Z,1013.80
2022-11-10T05:33:49.579Z,1013.77
2022-11-10T05:34:49.510Z,1013.75
2022-11-10T05:35:49.497Z,1013.76
2022-11-10T05:36:49.512Z,1013.81
2022-11-10T05:37:49.501Z,1013.83
2022-11-10T05:38:49.479Z,1013.84
2022-11-10T05:39:49.439Z,1013.83
2022-11-10T05:40:49.447Z,1013.84
2022-11-10T05:41:49.449Z,1013.84
2022-11-10T05:42:49.385Z,1013.84
2022-11-10T05:43:49.425Z,1013.85
2022-11-10T05:44:49.458Z,1013.85
2022-11-10T05:45:49.498Z,1013.85
2022-11-10T05:46:49.420Z,1013.84
2022-11-10T05:47:49.390Z,1013.81
2022-11-10T05:48:49.396Z,1013.79
2022-11-10T05:49:49.322Z,1013.79
2022-11-10T05:50:49.388Z,1013.81
2022-11-10T05:51:49.346Z,1013.85
2022-11-10T05:52:50.481Z,1013.90
2022-11-10T05:53:49.362Z,1013.92
2022-11-10T05:54:49.339Z,1013.95
2022-11-10T05:55:49.324Z,1013.99
2022-11-10T05:56:49.287Z,1014.05
2022-11-10T05:57:49.285Z,1014.10
2022-11-10T05:58:49.281Z,1014.15
2022-11-10T05:59:49.303Z,1014.18
2022-11-10T06:00:49.281Z,1014.19
2022-11-10T06:01:49.205Z,1014.22
2022-11-10T06:02:49.190Z,1014.23
2022-11-10T06:03:49.201Z,1014.22
2022-11-10T06:04:49.207Z,1014.22
2022-11-10T06:05:49.164Z,1014.24
2022-11-10T06:06:49.227Z,1014.26
2022-11-10T06:07:49.212Z,1014.26
2022-11-10T06:08:49.221Z,1014.28
2022-11-10T06:09:49.125Z,1014.29
2022-11-10T06:10:49.194Z,1014.30
2022-11-10T06:11:49.186Z,1014.32
2022-11-10T06:12:49.104Z,1014.35
2022-11-10T06:13:49.098Z,1014.37
2022-11-10T06:14:49.069Z,1014.39
2022-11-10T06:15:50.575Z,1014.42
2022-11-10T06:16:49.050Z,1014.45
2022-11-10T06:17:49.039Z,1014.50
2022-11-10T06:18:49.026Z,1014.56
2022-11-10T06:19:49.030Z,1014.61
2022-11-10T06:20:49.041Z,1014.66
2022-11-10T06:21:49.021Z,1014.70
2022-11-10T06:22:49.008Z,1014.74
2022-11-10T06:23:48.980Z,1014.77
2022-11-10T06:24:48.973Z,1014.78
2022-11-10T06:25:48.991Z,1014.81
2022-11-10T06:26:48.966Z,1014.82
2022-11-10T06:27:48.968Z,1014.82
2022-11-10T06:28:48.951Z,1014.81
2022-11-10T06:29:48.930Z,1014.81
2022-11-10T06:30:48.954Z,1014.81
2022-11-10T06:31:48.950Z,1014.82
2022-11-10T06:32:48.895Z,1014.84
2022-11-10T06:33:48.895Z,1014.85
2022-11-10T06:34:48.902Z,1014.88
2022-11-10T06:35:48.855Z,1014.91
2022-11-10T06:36:48.889Z,1014.94
2022-11-10T06:37:48.884Z,1014.99
2022-11-10T06:38:48.844Z,1015.01
2022-11-10T06:39:48.866Z,1015.04
2022-11-10T06:40:48.818Z,1015.07
2022-11-10T06:41:48.823Z,1015.10
2022-11-10T06:42:48.792Z,1015.11
2022-11-10T06:43:48.803Z,1015.12
2022-11-10T06:44:48.818Z,1015.12
2022-11-10T06:45:48.759Z,1015.13
2022-11-10T06:46:48.768Z,1015.12
2022-11-10T06:47:48.764Z,1015.13
2022-11-10T06:48:48.787Z,1015.14
2022-11-10T06:49:48.844Z,1015.16
2022-11-10T06:50:48.714Z,1015.17
2022-11-10T06:51:48.711Z,1015.19
2022-11-10T06:52:48.788Z,1015.19
2022-11-10T06:53:48.776Z,1015.18
2022-11-10T06:54:48.709Z,1015.18
2022-11-10T06:55:48.783Z,1015.17
2022-11-10T06:56:48.699Z,1015.18
2022-11-10T06:57:48.684Z,1015.19
2022-11-10T06:58:48.669Z,1015.20
2022-11-10T06:59:48.676Z,1015.23
2022-11-10T07:00:48.712Z,1015.26
2022-11-10T07:01:48.658Z,1015.30
2022-11-10T07:02:48.605Z,1015.35
2022-11-10T07:04:17.654Z,1015.39
2022-11-10T07:04:48.624Z,1015.42
2022-11-10T07:05:48.659Z,1015.45
2022-11-10T07:06:48.634Z,1015.49
2022-11-10T07:07:48.556Z,1015.53
2022-11-10T07:08:48.547Z,1015.57
2022-11-10T07:09:48.601Z,1015.58
2022-11-10T07:10:48.616Z,1015.59
2022-11-10T07:11:48.542Z,1015.60
2022-11-10T07:12:48.529Z,1015.62
2022-11-10T07:13:48.591Z,1015.65
2022-11-10T07:14:48.513Z,1015.67
2022-11-10T07:15:48.936Z,1015.70
2022-11-10T07:16:49.158Z,1015.73
2022-11-10T07:17:48.796Z,1015.75
2022-11-10T07:18:48.452Z,1015.77
2022-11-10T07:19:48.495Z,1015.78
2022-11-10T07:20:48.471Z,1015.80
2022-11-10T07:21:48.558Z,1015.81
2022-11-10T07:22:48.999Z,1015.82
2022-11-10T07:23:48.577Z,1015.83
2022-11-10T07:24:48.485Z,1015.87
2022-11-10T07:25:48.379Z,1015.91
2022-11-10T07:26:48.397Z,1015.92
2022-11-10T07:27:48.505Z,1015.93
2022-11-10T07:28:48.374Z,1015.93
2022-11-10T07:29:48.404Z,1015.94
2022-11-10T07:30:48.428Z,1015.96
2022-11-10T07:31:48.390Z,1015.96
2022-11-10T07:32:48.313Z,1015.97
2022-11-10T07:33:54.208Z,1016.00
2022-11-10T07:34:48.284Z,1016.03
2022-11-10T07:35:48.363Z,1016.07
2022-11-10T07:36:49.243Z,1016.08
2022-11-10T07:37:48.300Z,1016.08
2022-11-10T07:38:48.308Z,1016.08
2022-11-10T07:39:48.280Z,1016.08
2022-11-10T07:40:48.331Z,1016.09
2022-11-10T07:41:52.260Z,1016.10
2022-11-10T07:42:48.278Z,1016.11
2022-11-10T07:43:48.198Z,1016.12
2022-11-10T07:44:48.224Z,1016.14
2022-11-10T07:45:48.224Z,1016.15
2022-11-10T07:46:49.039Z,1016.18
2022-11-10T07:47:48.214Z,1016.21
2022-11-10T07:48:48.677Z,1016.24
2022-11-10T07:49:48.189Z,1016.25
2022-11-10T07:50:48.158Z,1016.26
2022-11-10T07:51:48.502Z,1016.27
2022-11-10T07:52:48.194Z,1016.28
2022-11-10T07:53:48.208Z,1016.31
2022-11-10T07:54:48.239Z,1016.34
2022-11-10T07:55:48.131Z,1016.38
2022-11-10T07:56:48.075Z,1016.40
2022-11-10T07:57:48.176Z,1016.41
2022-11-10T07:58:48.088Z,1016.42
2022-11-10T07:59:48.253Z,1016.44
2022-11-10T08:00:48.111Z,1016.46
2022-11-10T08:01:48.111Z,1016.46
2022-11-10T08:02:48.069Z,1016.46
2022-11-10T08:03:47.995Z,1016.44
2022-11-10T08:04:47.986Z,1016.44
2022-11-10T08:05:48.019Z,1016.45
2022-11-10T08:06:48.238Z,1016.46
2022-11-10T08:07:48.059Z,1016.48
2022-11-10T08:08:48.031Z,1016.50
2022-11-10T08:09:48.378Z,1016.52
2022-11-10T08:10:48.072Z,1016.54
2022-11-10T08:11:48.024Z,1016.56
2022-11-10T08:12:47.987Z,1016.59
2022-11-10T08:13:47.964Z,1016.60
2022-11-10T08:14:47.907Z,1016.60
2022-11-10T08:15:47.907Z,1016.61
2022-11-10T08:16:47.912Z,1016.61
2022-11-10T08:17:47.908Z,1016.62
2022-11-10T08:18:47.908Z,1016.61
2022-11-10T08:19:47.866Z,1016.60
2022-11-10T08:20:47.831Z,1016.59
2022-11-10T08:21:47.861Z,1016.58
2022-11-10T08:22:48.720Z,1016.58
2022-11-10T08:23:47.887Z,1016.59
2022-11-10T08:24:47.808Z,1016.62
2022-11-10T08:25:47.836Z,1016.65
2022-11-10T08:26:47.817Z,1016.67
2022-11-10T08:27:48.674Z,1016.68
2022-11-10T08:28:47.764Z,1016.68
2022-11-10T08:29:47.715Z,1016.67
2022-11-10T08:30:47.793Z,1016.66
2022-11-10T08:31:47.960Z,1016.66
2022-11-10T08:32:47.770Z,1016.68
2022-11-10T08:33:47.907Z,1016.69
2022-11-10T08:34:47.667Z,1016.70
2022-11-10T08:35:47.684Z,1016.70
2022-11-10T08:36:47.661Z,1016.69
2022-11-10T08:37:47.661Z,1016.70
2022-11-10T08:38:50.674Z,1016.70
2022-11-10T08:39:47.710Z,1016.70
2022-11-10T08:40:47.737Z,1016.70
2022-11-10T08:41:47.601Z,1016.71
2022-11-10T08:42:47.685Z,1016.73
2022-11-10T08:43:47.662Z,1016.73
2022-11-10T08:44:47.635Z,1016.76
2022-11-10T08:45:47.668Z,1016.78
2022-11-10T08:46:47.786Z,1016.80
2022-11-10T08:47:47.656Z,1016.82
2022-11-10T08:48:47.939Z,1016.83
2022-11-10T08:49:47.571Z,1016.86
2022-11-10T08:50:47.903Z,1016.88
2022-11-10T08:51:47.607Z,1016.90
2022-11-10T08:52:47.666Z,1016.91
2022-11-10T08:53:47.548Z,1016.90
2022-11-10T08:54:48.993Z,1016.91
2022-11-10T08:55:47.575Z,1016.93
2022-11-10T08:56:47.627Z,1016.96
2022-11-10T08:57:47.573Z,1016.98
2022-11-10T08:58:53.136Z,1017.00
2022-11-10T08:59:47.601Z,1016.99
2022-11-10T09:00:47.570Z,1017.00
2022-11-10T09:01:47.985Z,1016.99
2022-11-10T09:02:47.417Z,1016.97
2022-11-10T09:03:48.109Z,1016.97
2022-11-10T09:04:47.694Z,1016.97
2022-11-10T09:05:47.467Z,1016.98
2022-11-10T09:06:47.457Z,1017.00
2022-11-10T09:07:47.380Z,1017.00
2022-11-10T09:08:47.362Z,1017.01
2022-11-10T09:10:01.468Z,1017.02
2022-11-10T09:10:47.884Z,1017.04
2022-11-10T09:11:47.356Z,1017.03
2022-11-10T09:12:48.230Z,1017.03
2022-11-10T09:13:47.318Z,1017.04
2022-11-10T09:14:47.356Z,1017.06
2022-11-10T09:15:47.383Z,1017.11
2022-11-10T09:16:47.398Z,1017.12
2022-11-10T09:17:47.490Z,1017.14
2022-11-10T09:18:47.281Z,1017.16
2022-11-10T09:19:47.281Z,1017.20
2022-11-10T09:20:47.232Z,1017.22
2022-11-10T09:21:54.366Z,1017.23
2022-11-10T09:22:47.239Z,1017.23
2022-11-10T09:23:47.175Z,1017.24
2022-11-10T09:24:47.199Z,1017.24
2022-11-10T09:25:47.297Z,1017.23
2022-11-10T09:26:47.170Z,1017.25
2022-11-10T09:27:47.196Z,1017.26
2022-11-10T09:28:48.390Z,1017.27
2022-11-10T09:29:47.380Z,1017.26
2022-11-10T09:30:47.120Z,1017.26
2022-11-10T09:31:47.204Z,1017.27
2022-11-10T09:32:47.119Z,1017.24
2022-11-10T09:33:47.246Z,1017.26
2022-11-10T09:34:52.723Z,1017.28
2022-11-10T09:35:47.216Z,1017.31
2022-11-10T09:36:47.263Z,1017.34
2022-11-10T09:37:48.614Z,1017.36
2022-11-10T09:38:47.136Z,1017.39
2022-11-10T09:39:47.158Z,1017.43
2022-11-10T09:40:47.396Z,1017.42
2022-11-10T09:41:47.067Z,1017.44
2022-11-10T09:42:47.074Z,1017.45
2022-11-10T09:43:47.077Z,1017.45
2022-11-10T09:44:47.049Z,1017.46
2022-11-10T09:45:47.008Z,1017.48
2022-11-10T09:46:47.286Z,1017.49
2022-11-10T09:48:02.442Z,1017.52
2022-11-10T09:48:47.228Z,1017.55
2022-11-10T09:49:47.035Z,1017.58
2022-11-10T09:50:47.014Z,1017.62
2022-11-10T09:51:48.415Z,1017.67
2022-11-10T09:52:46.912Z,1017.68
2022-11-10T09:53:46.897Z,1017.69
2022-11-10T09:54:46.870Z,1017.69
2022-11-10T09:55:46.883Z,1017.66
2022-11-10T09:56:46.868Z,1017.64
2022-11-10T09:57:48.941Z,1017.67
2022-11-10T09:58:46.856Z,1017.67
2022-11-10T09:59:46.845Z,1017.70
2022-11-10T10:00:46.851Z,1017.71
2022-11-10T10:01:46.915Z,1017.72
2022-11-10T10:02:46.811Z,1017.74
2022-11-10T10:03:46.769Z,1017.73
2022-11-10T10:04:51.906Z,1017.73
2022-11-10T10:05:47.266Z,1017.75
2022-11-10T10:07:09.608Z,1017.73
2022-11-10T10:07:46.922Z,1017.74
2022-11-10T10:08:46.734Z,1017.74
2022-11-10T10:09:46.721Z,1017.75
2022-11-10T10:10:46.720Z,1017.74
2022-11-10T10:11:46.736Z,1017.73
2022-11-10T10:12:46.694Z,1017.72
2022-11-10T10:13:46.740Z,1017.68
2022-11-10T10:14:46.679Z,1017.69
2022-11-10T10:15:46.693Z,1017.68
2022-11-10T10:16:46.905Z,1017.69
2022-11-10T10:17:46.680Z,1017.71
2022-11-10T10:18:46.766Z,1017.72
2022-11-10T10:19:46.664Z,1017.74
2022-11-10T10:20:46.649Z,1017.77
2022-11-10T10:21:46.696Z,1017.79
2022-11-10T10:22:46.660Z,1017.78
2022-11-10T10:24:08.975Z,1017.78
2022-11-10T10:24:46.637Z,1017.76
2022-11-10T10:25:46.618Z,1017.74
2022-11-10T10:26:46.645Z,1017.72
2022-11-10T10:27:46.682Z,1017.74
2022-11-10T10:28:47.251Z,1017.74
2022-11-10T10:29:46.575Z,1017.73
2022-11-10T10:30:46.651Z,1017.76
2022-11-10T10:31:46.522Z,1017.78
2022-11-10T10:32:46.514Z,1017.79
2022-11-10T10:33:46.508Z,1017.80
2022-11-10T10:34:46.743Z,1017.80
2022-11-10T10:35:46.560Z,1017.79
2022-11-10T10:36:46.446Z,1017.78
2022-11-10T10:37:46.746Z,1017.78
2022-11-10T10:38:46.456Z,1017.79
2022-11-10T10:39:46.430Z,1017.76
2022-11-10T10:40:46.401Z,1017.77
2022-11-10T10:41:46.438Z,1017.80
2022-11-10T10:42:46.387Z,1017.78
2022-11-10T10:43:46.410Z,1017.77
2022-11-10T10:44:46.444Z,1017.76
2022-11-10T10:45:46.444Z,1017.76
2022-11-10T10:46:46.472Z,1017.74
2022-11-10T10:47:46.324Z,1017.74
2022-11-10T10:48:50.559Z,1017.74
2022-11-10T10:49:46.308Z,1017.72
2022-11-10T10:50:46.316Z,1017.73
2022-11-10T10:51:46.394Z,1017.73
2022-11-10T10:52:46.332Z,1017.76
2022-11-10T10:53:46.303Z,1017.76
2022-11-10T10:54:46.260Z,1017.78
2022-11-10T10:55:46.252Z,1017.76
2022-11-10T10:56:46.340Z,1017.76
2022-11-10T10:57:46.247Z,1017.79
2022-11-10T10:58:46.390Z,1017.79
2022-11-10T10:59:46.239Z,1017.80
2022-11-10T11:00:46.192Z,1017.79
2022-11-10T11:01:46.240Z,1017.79
2022-11-10T11:02:46.167Z,1017.80
2022-11-10T11:03:46.172Z,1017.77
2022-11-10T11:04:46.205Z,1017.76
2022-11-10T11:05:46.242Z,1017.77
2022-11-10T11:06:46.207Z,1017.79
2022-11-10T11:07:46.162Z,1017.81
2022-11-10T11:08:46.153Z,1017.83
2022-11-10T11:09:46.123Z,1017.85
2022-11-10T11:10:46.243Z,1017.83
2022-11-10T11:11:46.087Z,1017.81
2022-11-10T11:12:46.088Z,1017.78
2022-11-10T11:13:46.065Z,1017.77
2022-11-10T11:14:46.466Z,1017.77
2022-11-10T11:15:46.051Z,1017.78
2022-11-10T11:16:46.021Z,1017.82
2022-11-10T11:17:46.069Z,1017.85
2022-11-10T11:18:46.103Z,1017.87
2022-11-10T11:19:46.139Z,1017.87
2022-11-10T11:20:46.049Z,1017.87
2022-11-10T11:21:46.062Z,1017.85
2022-11-10T11:22:45.963Z,1017.88
2022-11-10T11:23:46.003Z,1017.83
2022-11-10T11:24:46.021Z,1017.86
2022-11-10T11:25:45.994Z,1017.90
2022-11-10T11:26:45.953Z,1017.91
2022-11-10T11:27:45.927Z,1017.95
2022-11-10T11:28:45.950Z,1017.94
2022-11-10T11:29:45.888Z,1017.94
2022-11-10T11:30:45.906Z,1017.93
2022-11-10T11:31:45.959Z,1017.92
2022-11-10T11:32:45.893Z,1017.92
2022-11-10T11:33:45.907Z,1017.90
2022-11-10T11:34:45.893Z,1017.91
2022-11-10T11:35:45.879Z,1017.92
2022-11-10T11:36:45.877Z,1017.93
2022-11-10T11:37:45.887Z,1017.92
2022-11-10T11:38:45.860Z,1017.92
2022-11-10T11:39:45.859Z,1017.95
2022-11-10T11:40:45.803Z,1017.97
2022-11-10T11:41:45.834Z,1017.98
2022-11-10T11:42:45.770Z,1018.02
2022-11-10T11:43:45.788Z,1018.01
2022-11-10T11:44:45.803Z,1018.01
2022-11-10T11:45:45.736Z,1018.00
2022-11-10T11:46:49.204Z,1018.01
2022-11-10T11:47:45.773Z,1018.01
2022-11-10T11:48:45.747Z,1018.01
2022-11-10T11:49:45.771Z,1018.01
2022-11-10T11:50:45.701Z,1018.02
2022-11-10T11:51:45.790Z,1018.01
2022-11-10T11:52:45.733Z,1018.02
2022-11-10T11:53:45.707Z,1018.03
2022-11-10T11:54:45.643Z,1018.03
2022-11-10T11:55:45.650Z,1018.01
2022-11-10T11:56:45.651Z,1018.01
2022-11-10T11:57:45.662Z,1017.99
2022-11-10T11:58:45.916Z,1018.02
2022-11-10T11:59:45.606Z,1018.02
2022-11-10T12:00:45.629Z,1018.01
2022-11-10T12:01:45.647Z,1018.01
2022-11-10T12:02:50.181Z,1018.00
2022-11-10T12:03:45.628Z,1017.99
2022-11-10T12:04:45.550Z,1017.99
2022-11-10T12:05:45.547Z,1017.99